createdAt,value
2019-03-16T00:00:55.526Z,8.60
2019-03-16T00:03:21.808Z,8.60
2019-03-16T00:05:48.316Z,8.60
2019-03-16T00:08:14.862Z,8.50
2019-03-16T00:10:41.224Z,8.50
2019-03-16T00:13:07.601Z,8.50
2019-03-16T00:15:33.955Z,8.60
2019-03-16T00:18:00.242Z,8.60
2019-03-16T00:20:26.582Z,8.60
2019-03-16T00:22:53.143Z,8.60
2019-03-16T00:25:19.874Z,8.60
2019-03-16T00:27:46.238Z,8.60
2019-03-16T00:30:13.527Z,8.50
2019-03-16T00:32:39.791Z,8.50
2019-03-16T00:35:06.505Z,8.50
2019-03-16T00:37:33.136Z,8.50
2019-03-16T00:39:59.776Z,8.50
2019-03-16T00:42:27.238Z,8.50
2019-03-16T00:44:56.917Z,8.50
2019-03-16T00:47:23.594Z,8.50
2019-03-16T00:49:49.979Z,8.50
2019-03-16T00:52:16.770Z,8.50
2019-03-16T00:54:43.228Z,8.50
2019-03-16T00:57:09.742Z,8.50
2019-03-16T00:59:36.030Z,8.50
2019-03-16T01:02:03.477Z,8.50
2019-03-16T01:04:29.779Z,8.60
2019-03-16T01:06:56.019Z,8.50
2019-03-16T01:09:22.385Z,8.60
2019-03-16T01:11:50.032Z,8.50
2019-03-16T01:14:16.379Z,8.50
2019-03-16T01:16:42.686Z,8.50
2019-03-16T01:19:09.350Z,8.50
2019-03-16T01:21:35.726Z,8.50
2019-03-16T01:24:02.127Z,8.40
2019-03-16T01:26:28.455Z,8.40
2019-03-16T01:28:55.127Z,8.40
2019-03-16T01:31:21.754Z,8.40
2019-03-16T01:33:48.014Z,8.40
2019-03-16T01:36:14.744Z,8.40
2019-03-16T01:38:41.016Z,8.40
2019-03-16T01:41:07.409Z,8.40
2019-03-16T01:43:33.763Z,8.40
2019-03-16T01:46:00.061Z,8.40
2019-03-16T01:48:26.908Z,8.40
2019-03-16T01:50:53.265Z,8.30
2019-03-16T01:53:25.817Z,8.40
2019-03-16T01:55:52.083Z,8.40
2019-03-16T01:58:18.481Z,8.40
2019-03-16T02:00:45.211Z,8.40
2019-03-16T02:03:11.987Z,8.30
2019-03-16T02:05:38.696Z,8.40
2019-03-16T02:08:04.970Z,8.30
2019-03-16T02:10:31.327Z,8.30
2019-03-16T02:12:57.614Z,8.30
2019-03-16T02:15:23.881Z,8.30
2019-03-16T02:17:50.152Z,8.30
2019-03-16T02:20:16.562Z,8.30
2019-03-16T02:22:43.047Z,8.30
2019-03-16T02:25:09.594Z,8.30
2019-03-16T02:27:36.373Z,8.30
2019-03-16T02:30:04.931Z,8.30
2019-03-16T02:32:31.363Z,8.30
2019-03-16T02:34:58.073Z,8.30
2019-03-16T02:37:24.349Z,8.30
2019-03-16T02:39:52.009Z,8.30
2019-03-16T02:42:18.671Z,8.20
2019-03-16T02:44:45.016Z,8.20
2019-03-16T02:47:11.667Z,8.20
2019-03-16T02:49:38.418Z,8.20
2019-03-16T02:52:04.778Z,8.20
2019-03-16T02:54:31.181Z,8.20
2019-03-16T02:56:57.531Z,8.20
2019-03-16T02:59:24.177Z,8.20
2019-03-16T03:01:50.532Z,8.20
2019-03-16T03:04:17.062Z,8.20
2019-03-16T03:06:43.302Z,8.20
2019-03-16T03:09:09.568Z,8.20
2019-03-16T03:11:35.920Z,8.20
2019-03-16T03:14:02.464Z,8.20
2019-03-16T03:16:28.836Z,8.20
2019-03-16T03:18:55.190Z,8.10
2019-03-16T03:21:21.550Z,8.20
2019-03-16T03:23:47.902Z,8.10
2019-03-16T03:26:14.302Z,8.20
2019-03-16T03:28:40.647Z,8.10
2019-03-16T03:31:07.003Z,8.10
2019-03-16T03:33:57.706Z,8.10
2019-03-16T03:36:01.936Z,8.10
2019-03-16T03:38:28.422Z,8.10
2019-03-16T03:40:54.768Z,8.10
2019-03-16T03:43:21.408Z,8.10
2019-03-16T03:45:47.773Z,8.10
2019-03-16T03:48:14.171Z,8.10
2019-03-16T03:50:40.435Z,8.10
2019-03-16T03:53:06.801Z,8.10
2019-03-16T03:55:33.064Z,8.10
2019-03-16T03:57:59.898Z,8.10
2019-03-16T04:00:26.441Z,8.10
2019-03-16T04:02:53.059Z,8.10
2019-03-16T04:05:19.431Z,8.10
2019-03-16T04:07:45.821Z,8.10
2019-03-16T04:10:12.464Z,8.00
2019-03-16T04:12:38.819Z,8.00
2019-03-16T04:15:08.990Z,8.10
2019-03-16T04:17:35.351Z,8.10
2019-03-16T04:20:08.120Z,8.10
2019-03-16T04:22:35.770Z,8.10
2019-03-16T04:25:02.656Z,8.10
2019-03-16T04:27:29.167Z,8.10
2019-03-16T04:29:55.808Z,8.10
2019-03-16T04:32:22.156Z,8.10
2019-03-16T04:34:48.701Z,8.10
2019-03-16T04:37:15.062Z,8.10
2019-03-16T04:39:41.339Z,8.10
2019-03-16T04:42:07.688Z,8.10
2019-03-16T04:44:33.944Z,8.00
2019-03-16T04:47:00.290Z,8.00
2019-03-16T04:49:27.545Z,8.00
2019-03-16T04:51:53.906Z,8.00
2019-03-16T04:54:21.260Z,8.00
2019-03-16T04:56:47.613Z,8.00
2019-03-16T04:59:14.167Z,8.00
2019-03-16T05:01:40.509Z,8.00
2019-03-16T05:04:07.023Z,8.00
2019-03-16T05:06:33.424Z,8.00
2019-03-16T05:08:59.855Z,8.00
2019-03-16T05:11:27.146Z,8.00
2019-03-16T05:13:56.432Z,8.00
2019-03-16T05:16:23.104Z,8.00
2019-03-16T05:18:49.768Z,8.00
2019-03-16T05:21:16.351Z,8.00
2019-03-16T05:23:43.710Z,8.00
2019-03-16T05:26:09.980Z,8.00
2019-03-16T05:28:36.357Z,8.00
2019-03-16T05:31:02.947Z,8.00
2019-03-16T05:33:29.318Z,8.00
2019-03-16T05:35:55.586Z,8.00
2019-03-16T05:38:21.853Z,8.00
2019-03-16T05:40:48.431Z,8.00
2019-03-16T05:43:14.854Z,8.00
2019-03-16T05:45:42.178Z,8.00
2019-03-16T05:48:08.460Z,8.00
2019-03-16T05:50:34.788Z,8.00
2019-03-16T05:53:01.072Z,8.00
2019-03-16T05:55:27.339Z,8.00
2019-03-16T05:57:54.795Z,8.00
2019-03-16T06:00:21.078Z,8.00
2019-03-16T06:02:47.771Z,8.00
2019-03-16T06:05:14.246Z,8.00
2019-03-16T06:07:40.610Z,8.00
2019-03-16T06:10:08.962Z,8.00
2019-03-16T06:12:35.427Z,8.00
2019-03-16T06:15:01.807Z,8.00
2019-03-16T06:17:28.390Z,8.00
2019-03-16T06:19:59.438Z,8.10
2019-03-16T06:22:25.802Z,8.10
2019-03-16T06:24:52.162Z,8.10
2019-03-16T06:27:18.865Z,8.10
2019-03-16T06:29:45.427Z,8.10
2019-03-16T06:32:11.783Z,8.10
2019-03-16T06:34:38.042Z,8.10
2019-03-16T06:37:04.317Z,8.10
2019-03-16T06:39:30.684Z,8.10
2019-03-16T06:41:57.187Z,8.10
2019-03-16T06:44:23.452Z,8.10
2019-03-16T06:46:49.740Z,8.10
2019-03-16T06:49:16.098Z,8.10
2019-03-16T06:51:42.527Z,8.10
2019-03-16T06:54:09.087Z,8.00
2019-03-16T06:56:35.360Z,8.00
2019-03-16T06:59:01.993Z,8.00
2019-03-16T07:01:28.371Z,8.00
2019-03-16T07:03:54.715Z,8.00
2019-03-16T07:06:21.254Z,8.00
2019-03-16T07:08:47.783Z,8.10
2019-03-16T07:11:14.047Z,8.00
2019-03-16T07:13:40.671Z,8.00
2019-03-16T07:16:07.186Z,8.00
2019-03-16T07:18:33.754Z,8.00
2019-03-16T07:21:00.395Z,8.00
2019-03-16T07:23:26.953Z,8.00
2019-03-16T07:25:53.584Z,8.00
2019-03-16T07:28:20.203Z,8.00
2019-03-16T07:30:46.625Z,8.00
2019-03-16T07:33:12.931Z,8.00
2019-03-16T07:35:39.266Z,8.00
2019-03-16T07:38:06.047Z,8.00
2019-03-16T07:40:32.711Z,8.00
2019-03-16T07:42:59.397Z,8.00
2019-03-16T07:45:25.816Z,8.00
2019-03-16T07:47:52.176Z,8.00
2019-03-16T07:50:18.643Z,8.00
2019-03-16T07:52:44.987Z,7.90
2019-03-16T07:55:11.682Z,7.90
2019-03-16T07:57:40.587Z,7.90
2019-03-16T08:00:11.599Z,7.90
2019-03-16T08:02:39.274Z,8.00
2019-03-16T08:05:17.522Z,8.00
2019-03-16T08:07:34.294Z,8.00
2019-03-16T08:10:03.131Z,8.00
2019-03-16T08:12:32.337Z,8.00
2019-03-16T08:14:57.181Z,8.00
2019-03-16T08:17:23.784Z,8.00
2019-03-16T08:19:50.473Z,8.00
2019-03-16T08:22:17.177Z,8.00
2019-03-16T08:24:45.905Z,8.00
2019-03-16T08:27:12.651Z,8.00
2019-03-16T08:29:39.016Z,8.00
2019-03-16T08:32:05.308Z,8.00
2019-03-16T08:34:31.946Z,8.00
2019-03-16T08:36:58.294Z,8.00
2019-03-16T08:39:28.936Z,8.00
2019-03-16T08:41:55.552Z,8.00
2019-03-16T08:44:21.806Z,8.00
2019-03-16T08:46:48.078Z,8.00
2019-03-16T08:49:14.448Z,8.00
2019-03-16T08:51:40.729Z,8.00
2019-03-16T08:54:07.424Z,8.10
2019-03-16T08:56:34.080Z,8.10
2019-03-16T08:59:00.439Z,8.10
2019-03-16T09:01:26.811Z,8.10
2019-03-16T09:03:53.075Z,8.10
2019-03-16T09:06:19.451Z,8.20
2019-03-16T09:08:45.792Z,8.20
2019-03-16T09:11:12.162Z,8.20
2019-03-16T09:13:38.688Z,8.30
2019-03-16T09:16:05.242Z,8.30
2019-03-16T09:18:31.900Z,8.40
2019-03-16T09:20:58.167Z,8.40
2019-03-16T09:23:24.679Z,8.40
2019-03-16T09:25:51.234Z,8.40
2019-03-16T09:28:18.937Z,8.40
2019-03-16T09:30:46.568Z,8.40
2019-03-16T09:33:13.047Z,8.40
2019-03-16T09:35:39.396Z,8.40
2019-03-16T09:38:05.651Z,8.40
2019-03-16T09:40:32.317Z,8.40
2019-03-16T09:42:58.634Z,8.50
2019-03-16T09:45:25.028Z,8.60
2019-03-16T09:47:51.453Z,8.80
2019-03-16T09:50:17.713Z,9.00
2019-03-16T09:52:44.354Z,9.10
2019-03-16T09:55:11.899Z,9.20
2019-03-16T09:57:38.600Z,9.30
2019-03-16T10:00:15.140Z,9.30
2019-03-16T10:02:41.877Z,9.30
2019-03-16T10:05:08.365Z,9.30
2019-03-16T10:07:34.685Z,9.30
2019-03-16T10:10:01.058Z,9.30
2019-03-16T10:12:27.345Z,9.20
2019-03-16T10:14:57.222Z,9.20
2019-03-16T10:17:23.554Z,9.20
2019-03-16T10:19:49.831Z,9.20
2019-03-16T10:22:20.557Z,9.10
2019-03-16T10:24:46.807Z,9.10
2019-03-16T10:27:13.434Z,9.10
2019-03-16T10:29:39.983Z,9.10
2019-03-16T10:32:06.665Z,9.10
2019-03-16T10:34:32.996Z,9.10
2019-03-16T10:37:01.463Z,9.00
2019-03-16T10:39:27.755Z,9.00
2019-03-16T10:41:54.394Z,8.90
2019-03-16T10:44:20.926Z,8.80
2019-03-16T10:46:47.574Z,8.80
2019-03-16T10:49:14.182Z,8.80
2019-03-16T10:51:40.856Z,8.70
2019-03-16T10:54:07.464Z,8.70
2019-03-16T10:56:33.736Z,8.70
2019-03-16T10:59:00.088Z,8.60
2019-03-16T11:01:26.688Z,8.60
2019-03-16T11:03:53.057Z,8.60
2019-03-16T11:06:20.400Z,8.60
2019-03-16T11:08:46.783Z,8.60
2019-03-16T11:11:13.089Z,8.70
2019-03-16T11:13:39.731Z,8.60
2019-03-16T11:16:06.356Z,8.70
2019-03-16T11:18:32.990Z,8.60
2019-03-16T11:20:59.263Z,8.70
2019-03-16T11:23:26.037Z,8.70
2019-03-16T11:25:52.631Z,8.70
2019-03-16T11:28:19.192Z,8.80
2019-03-16T11:30:45.546Z,8.70
2019-03-16T11:33:18.224Z,8.80
2019-03-16T11:35:44.526Z,8.80
2019-03-16T11:38:11.588Z,8.90
2019-03-16T11:40:38.262Z,8.90
2019-03-16T11:43:04.647Z,9.00
2019-03-16T11:45:31.157Z,9.10
2019-03-16T11:47:57.548Z,9.20
2019-03-16T11:50:24.823Z,9.40
2019-03-16T11:52:52.127Z,9.50
2019-03-16T11:55:18.478Z,9.60
2019-03-16T11:57:44.818Z,9.70
2019-03-16T12:00:12.675Z,10.00
2019-03-16T12:02:39.321Z,10.10
2019-03-16T12:05:10.200Z,10.30
2019-03-16T12:07:36.799Z,10.40
2019-03-16T12:10:09.380Z,10.90
2019-03-16T12:12:35.736Z,11.10
2019-03-16T12:15:04.229Z,11.30
2019-03-16T12:17:30.822Z,11.40
2019-03-16T12:19:57.223Z,11.90
2019-03-16T12:22:23.624Z,12.00
2019-03-16T12:24:50.219Z,12.10
2019-03-16T12:27:17.100Z,12.20
2019-03-16T12:29:43.794Z,12.30
2019-03-16T12:32:11.379Z,12.30
2019-03-16T12:34:38.151Z,12.00
2019-03-16T12:37:05.032Z,11.80
2019-03-16T12:39:31.503Z,11.70
2019-03-16T12:41:58.045Z,11.50
2019-03-16T12:44:24.783Z,11.60
2019-03-16T12:46:51.172Z,11.60
2019-03-16T12:49:17.889Z,11.60
2019-03-16T12:51:45.926Z,11.60
2019-03-16T12:54:12.315Z,11.60
2019-03-16T12:56:39.597Z,11.50
2019-03-16T12:59:10.824Z,11.50
2019-03-16T13:01:35.148Z,11.50
2019-03-16T13:04:01.515Z,11.50
2019-03-16T13:06:27.956Z,11.30
2019-03-16T13:08:54.335Z,11.30
2019-03-16T13:11:21.004Z,11.20
2019-03-16T13:13:47.372Z,11.10
2019-03-16T13:16:17.195Z,11.10
2019-03-16T13:18:43.778Z,11.20
2019-03-16T13:21:10.213Z,11.30
2019-03-16T13:23:37.583Z,11.20
2019-03-16T13:26:10.052Z,11.10
2019-03-16T13:28:36.654Z,11.10
2019-03-16T13:31:03.445Z,11.20
2019-03-16T13:33:30.076Z,11.60
2019-03-16T13:35:56.709Z,11.70
2019-03-16T13:38:23.049Z,11.70
2019-03-16T13:40:49.529Z,11.60
2019-03-16T13:43:16.004Z,11.60
2019-03-16T13:45:42.417Z,12.10
2019-03-16T13:48:08.830Z,12.30
2019-03-16T13:50:35.233Z,12.00
2019-03-16T13:53:01.975Z,11.90
2019-03-16T13:55:28.449Z,11.90
2019-03-16T13:57:55.158Z,12.00
2019-03-16T14:00:21.841Z,11.90
2019-03-16T14:02:48.657Z,11.80
2019-03-16T14:05:17.268Z,11.80
2019-03-16T14:07:43.957Z,11.60
2019-03-16T14:10:16.345Z,11.60
2019-03-16T14:12:42.806Z,11.60
2019-03-16T14:15:09.297Z,11.50
2019-03-16T14:17:35.858Z,11.50
2019-03-16T14:20:02.562Z,11.70
2019-03-16T14:22:30.244Z,11.90
2019-03-16T14:24:57.909Z,11.90
2019-03-16T14:27:24.506Z,11.80
2019-03-16T14:29:50.866Z,11.80
2019-03-16T14:32:17.229Z,11.80
2019-03-16T14:34:43.894Z,11.80
2019-03-16T14:37:10.467Z,11.70
2019-03-16T14:39:37.000Z,11.70
2019-03-16T14:42:03.624Z,11.70
2019-03-16T14:44:31.269Z,11.70
2019-03-16T14:46:57.659Z,11.60
2019-03-16T14:49:24.316Z,11.50
2019-03-16T14:51:50.987Z,11.50
2019-03-16T14:54:17.870Z,11.40
2019-03-16T14:56:44.243Z,11.40
2019-03-16T14:59:10.518Z,11.40
2019-03-16T15:01:36.774Z,11.50
2019-03-16T15:04:03.259Z,11.60
2019-03-16T15:06:29.570Z,11.70
2019-03-16T15:08:57.948Z,11.80
2019-03-16T15:11:24.579Z,12.00
2019-03-16T15:13:51.045Z,12.10
2019-03-16T15:16:17.738Z,12.30
2019-03-16T15:18:45.141Z,12.40
2019-03-16T15:21:12.244Z,12.60
2019-03-16T15:23:38.978Z,12.80
2019-03-16T15:26:05.828Z,12.90
2019-03-16T15:28:32.231Z,12.90
2019-03-16T15:30:58.580Z,13.00
2019-03-16T15:33:25.214Z,12.90
2019-03-16T15:35:52.582Z,12.90
2019-03-16T15:38:19.417Z,12.90
2019-03-16T15:40:46.894Z,12.80
2019-03-16T15:43:13.284Z,12.70
2019-03-16T15:45:39.519Z,12.40
2019-03-16T15:48:06.821Z,12.30
2019-03-16T15:50:33.231Z,12.10
2019-03-16T15:52:59.631Z,12.00
2019-03-16T15:55:26.247Z,11.90
2019-03-16T15:57:52.534Z,11.80
2019-03-16T16:00:19.536Z,11.80
2019-03-16T16:02:45.935Z,11.70
2019-03-16T16:05:18.036Z,11.70
2019-03-16T16:07:44.878Z,11.60
2019-03-16T16:10:15.243Z,11.50
2019-03-16T16:12:41.682Z,11.50
2019-03-16T16:15:09.496Z,11.50
2019-03-16T16:17:36.095Z,11.50
2019-03-16T16:20:07.182Z,11.40
2019-03-16T16:22:33.542Z,11.30
2019-03-16T16:25:01.068Z,11.20
2019-03-16T16:27:27.800Z,11.20
2019-03-16T16:29:54.047Z,11.00
2019-03-16T16:32:20.803Z,10.90
2019-03-16T16:34:47.182Z,10.90
2019-03-16T16:37:13.420Z,10.80
2019-03-16T16:39:39.976Z,10.70
2019-03-16T16:42:06.300Z,10.70
2019-03-16T16:44:32.938Z,10.60
2019-03-16T16:46:59.200Z,10.50
2019-03-16T16:49:25.481Z,10.50
2019-03-16T16:51:52.856Z,10.40
2019-03-16T16:54:19.215Z,10.30
2019-03-16T16:56:45.951Z,10.30
2019-03-16T16:59:12.572Z,10.20
2019-03-16T17:01:38.935Z,10.10
2019-03-16T17:04:05.330Z,10.10
2019-03-16T17:06:31.685Z,10.00
2019-03-16T17:08:58.227Z,10.00
2019-03-16T17:11:26.293Z,9.90
2019-03-16T17:13:52.732Z,9.80
2019-03-16T17:16:19.004Z,9.70
2019-03-16T17:18:45.354Z,9.70
2019-03-16T17:21:11.740Z,9.60
2019-03-16T17:23:38.106Z,9.60
2019-03-16T17:26:05.058Z,9.50
2019-03-16T17:28:31.726Z,9.40
2019-03-16T17:31:00.259Z,9.30
2019-03-16T17:33:26.805Z,9.30
2019-03-16T17:35:53.143Z,9.10
2019-03-16T17:38:19.510Z,9.00
2019-03-16T17:40:46.030Z,9.00
2019-03-16T17:43:13.406Z,8.80
2019-03-16T17:45:40.034Z,8.80
2019-03-16T17:48:06.301Z,8.70
2019-03-16T17:50:32.788Z,8.60
2019-03-16T17:52:59.467Z,8.60
2019-03-16T17:55:25.951Z,8.50
2019-03-16T17:57:52.215Z,8.40
2019-03-16T18:00:19.005Z,8.40
2019-03-16T18:02:51.901Z,8.30
2019-03-16T18:05:14.099Z,8.20
2019-03-16T18:07:41.459Z,8.20
2019-03-16T18:10:09.219Z,8.10
2019-03-16T18:12:35.600Z,8.00
2019-03-16T18:15:03.164Z,8.00
2019-03-16T18:17:29.865Z,7.90
2019-03-16T18:19:56.910Z,7.80
2019-03-16T18:22:23.245Z,7.70
2019-03-16T18:24:49.531Z,7.70
2019-03-16T18:27:15.915Z,7.70
2019-03-16T18:29:42.156Z,7.70
2019-03-16T18:32:08.543Z,7.60
2019-03-16T18:34:35.885Z,7.60
2019-03-16T18:37:02.275Z,7.60
2019-03-16T18:39:28.624Z,7.60
2019-03-16T18:41:54.903Z,7.60
2019-03-16T18:44:21.526Z,7.60
2019-03-16T18:46:47.923Z,7.50
2019-03-16T18:49:14.277Z,7.50
2019-03-16T18:51:40.625Z,7.50
2019-03-16T18:54:07.195Z,7.40
2019-03-16T18:56:33.554Z,7.30
2019-03-16T18:58:59.859Z,7.20
2019-03-16T19:01:26.501Z,7.20
2019-03-16T19:03:53.234Z,7.20
2019-03-16T19:06:19.608Z,7.20
2019-03-16T19:08:46.131Z,7.20
2019-03-16T19:11:12.420Z,7.10
2019-03-16T19:13:38.782Z,7.10
2019-03-16T19:16:05.337Z,7.10
2019-03-16T19:18:31.844Z,7.10
2019-03-16T19:20:58.391Z,7.10
2019-03-16T19:23:24.937Z,7.10
2019-03-16T19:25:51.274Z,7.00
2019-03-16T19:28:18.663Z,7.00
2019-03-16T19:30:45.293Z,7.00
2019-03-16T19:33:11.607Z,7.00
2019-03-16T19:35:37.981Z,6.90
2019-03-16T19:38:04.318Z,6.90
2019-03-16T19:40:30.591Z,6.90
2019-03-16T19:42:56.835Z,6.90
2019-03-16T19:45:23.166Z,6.90
2019-03-16T19:47:49.537Z,6.90
2019-03-16T19:50:16.087Z,6.80
2019-03-16T19:52:42.377Z,6.80
2019-03-16T19:55:09.923Z,6.70
2019-03-16T19:57:36.552Z,6.60
2019-03-16T20:00:05.925Z,6.60
2019-03-16T20:02:45.729Z,6.50
2019-03-16T20:05:03.489Z,6.40
2019-03-16T20:07:29.751Z,6.30
2019-03-16T20:09:56.028Z,6.20
2019-03-16T20:12:22.757Z,6.10
2019-03-16T20:14:49.360Z,6.10
2019-03-16T20:17:16.066Z,6.00
2019-03-16T20:19:44.183Z,5.90
2019-03-16T20:22:12.253Z,5.90
2019-03-16T20:24:38.905Z,5.80
2019-03-16T20:27:05.638Z,5.70
2019-03-16T20:29:32.257Z,5.70
2019-03-16T20:31:58.852Z,5.60
2019-03-16T20:34:26.017Z,5.60
2019-03-16T20:36:52.477Z,5.50
2019-03-16T20:39:19.226Z,5.40
2019-03-16T20:41:47.083Z,5.40
2019-03-16T20:44:13.839Z,5.30
2019-03-16T20:46:40.835Z,5.20
2019-03-16T20:49:07.736Z,5.20
2019-03-16T20:51:34.672Z,5.10
2019-03-16T20:54:01.075Z,5.00
2019-03-16T20:56:27.446Z,4.90
2019-03-16T20:58:53.956Z,4.80
2019-03-16T21:01:20.308Z,4.70
2019-03-16T21:03:47.037Z,4.60
2019-03-16T21:06:13.756Z,4.50
2019-03-16T21:08:40.098Z,4.40
2019-03-16T21:11:06.470Z,4.20
2019-03-16T21:13:32.719Z,4.10
2019-03-16T21:15:59.049Z,4.10
2019-03-16T21:18:25.454Z,4.00
2019-03-16T21:20:51.822Z,3.90
2019-03-16T21:23:18.190Z,3.80
2019-03-16T21:25:44.759Z,3.80
2019-03-16T21:28:11.114Z,3.60
2019-03-16T21:30:37.375Z,3.60
2019-03-16T21:33:03.729Z,3.60
2019-03-16T21:35:30.111Z,3.50
2019-03-16T21:37:56.578Z,3.50
2019-03-16T21:40:23.123Z,3.50
2019-03-16T21:42:49.359Z,3.60
2019-03-16T21:45:15.679Z,3.50
2019-03-16T21:47:41.941Z,3.60
2019-03-16T21:50:13.460Z,3.60
2019-03-16T21:52:39.921Z,3.60
2019-03-16T21:55:10.915Z,3.60
2019-03-16T21:57:37.289Z,3.60
2019-03-16T22:00:13.417Z,3.70
2019-03-16T22:02:41.078Z,3.70
2019-03-16T22:05:08.277Z,3.80
2019-03-16T22:07:34.622Z,3.90
2019-03-16T22:10:00.902Z,4.00
2019-03-16T22:12:27.485Z,4.00
2019-03-16T22:14:54.127Z,4.00
2019-03-16T22:17:20.496Z,4.00
2019-03-16T22:19:47.110Z,4.10
2019-03-16T22:22:13.789Z,4.10
2019-03-16T22:24:40.403Z,4.00
2019-03-16T22:27:07.025Z,4.00
2019-03-16T22:29:33.667Z,4.00
2019-03-16T22:32:00.046Z,4.00
2019-03-16T22:34:26.400Z,4.00
2019-03-16T22:36:52.659Z,4.10
2019-03-16T22:39:19.063Z,4.10
2019-03-16T22:41:45.354Z,4.10
2019-03-16T22:44:11.736Z,4.00
2019-03-16T22:46:38.083Z,3.90
2019-03-16T22:49:04.463Z,3.80
2019-03-16T22:51:30.810Z,3.80
2019-03-16T22:53:57.169Z,3.70
2019-03-16T22:56:23.586Z,3.70
2019-03-16T22:58:50.221Z,3.70
2019-03-16T23:01:16.494Z,3.70
2019-03-16T23:03:42.848Z,3.70
2019-03-16T23:06:10.523Z,3.60
2019-03-16T23:08:37.701Z,3.50
2019-03-16T23:11:04.117Z,3.40
2019-03-16T23:13:30.870Z,3.50
2019-03-16T23:15:57.113Z,3.60
2019-03-16T23:18:23.487Z,3.70
2019-03-16T23:20:49.731Z,3.80
2019-03-16T23:23:16.113Z,3.90
2019-03-16T23:25:42.470Z,4.10
2019-03-16T23:28:08.734Z,4.20
2019-03-16T23:30:35.703Z,4.30
2019-03-16T23:33:02.383Z,4.50
2019-03-16T23:35:28.774Z,4.60
2019-03-16T23:37:55.358Z,4.70
2019-03-16T23:40:21.659Z,4.70
2019-03-16T23:42:47.901Z,4.70
2019-03-16T23:45:15.741Z,4.80
2019-03-16T23:47:42.313Z,4.80
2019-03-16T23:50:10.215Z,4.80
2019-03-16T23:52:37.143Z,4.80
2019-03-16T23:55:05.271Z,4.80
2019-03-16T23:57:33.069Z,4.90
2019-03-16T23:59:59.431Z,4.90
